sensor_id;sensor_type;location;lat;lon;timestamp;pressure;altitude;pressure_sealevel;temperature;humidity
9784;BME280;4931;44.874;-1.092;2022-09-01T00:00:53;101484.53;;;21.53;100.00
9784;BME280;4931;44.874;-1.092;2022-09-01T00:05:42;101482.81;;;21.69;100.00
9784;BME280;4931;44.874;-1.092;2022-09-01T00:10:28;101482.41;;;21.59;100.00
9784;BME280;4931;44.874;-1.092;2022-09-01T00:15:14;101478.00;;;21.49;100.00
9784;BME280;4931;44.874;-1.092;2022-09-01T00:20:00;101463.19;;;21.57;100.00
9784;BME280;4931;44.874;-1.092;2022-09-01T00:24:49;101467.13;;;21.56;100.00
9784;BME280;4931;44.874;-1.092;2022-09-01T00:29:35;101467.78;;;21.53;100.00
9784;BME280;4931;44.874;-1.092;2022-09-01T00:34:24;101461.69;;;21.60;100.00
9784;BME280;4931;44.874;-1.092;2022-09-01T00:39:10;101469.28;;;21.50;100.00
9784;BME280;4931;44.874;-1.092;2022-09-01T00:44:03;101451.03;;;21.53;100.00
9784;BME280;4931;44.874;-1.092;2022-09-01T00:48:53;101455.69;;;21.49;100.00
9784;BME280;4931;44.874;-1.092;2022-09-01T00:53:42;101453.34;;;21.51;100.00
9784;BME280;4931;44.874;-1.092;2022-09-01T00:58:32;101447.19;;;21.36;100.00
9784;BME280;4931;44.874;-1.092;2022-09-01T01:03:21;101441.56;;;21.45;100.00
9784;BME280;4931;44.874;-1.092;2022-09-01T01:08:09;101435.78;;;21.50;100.00
9784;BME280;4931;44.874;-1.092;2022-09-01T01:12:55;101430.38;;;21.54;100.00
9784;BME280;4931;44.874;-1.092;2022-09-01T01:17:43;101431.03;;;21.51;100.00
9784;BME280;4931;44.874;-1.092;2022-09-01T01:22:40;101438.16;;;21.39;100.00
9784;BME280;4931;44.874;-1.092;2022-09-01T01:27:44;101436.13;;;21.49;100.00
9784;BME280;4931;44.874;-1.092;2022-09-01T01:32:30;101434.34;;;21.44;100.00
9784;BME280;4931;44.874;-1.092;2022-09-01T01:37:17;101431.41;;;21.40;100.00
9784;BME280;4931;44.874;-1.092;2022-09-01T01:42:05;101426.84;;;21.36;100.00
9784;BME280;4931;44.874;-1.092;2022-09-01T01:46:55;101418.63;;;21.39;100.00
9784;BME280;4931;44.874;-1.092;2022-09-01T01:51:41;101410.72;;;21.42;100.00
9784;BME280;4931;44.874;-1.092;2022-09-01T01:56:29;101416.69;;;21.31;100.00
9784;BME280;4931;44.874;-1.092;2022-09-01T02:01:14;101406.22;;;21.28;100.00
9784;BME280;4931;44.874;-1.092;2022-09-01T02:06:05;101409.50;;;21.30;100.00
9784;BME280;4931;44.874;-1.092;2022-09-01T02:10:54;101406.53;;;21.35;100.00
9784;BME280;4931;44.874;-1.092;2022-09-01T02:15:44;101400.63;;;21.28;100.00
9784;BME280;4931;44.874;-1.092;2022-09-01T02:20:30;101398.56;;;21.16;100.00
9784;BME280;4931;44.874;-1.092;2022-09-01T02:25:18;101397.47;;;21.09;100.00
9784;BME280;4931;44.874;-1.092;2022-09-01T02:30:06;101395.69;;;21.04;100.00
9784;BME280;4931;44.874;-1.092;2022-09-01T02:34:52;101392.56;;;21.05;100.00
9784;BME280;4931;44.874;-1.092;2022-09-01T02:39:42;101393.22;;;21.02;100.00
9784;BME280;4931;44.874;-1.092;2022-09-01T02:44:31;101403.56;;;21.02;100.00
9784;BME280;4931;44.874;-1.092;2022-09-01T02:49:23;101408.72;;;20.91;100.00
9784;BME280;4931;44.874;-1.092;2022-09-01T02:54:11;101406.63;;;20.79;100.00
9784;BME280;4931;44.874;-1.092;2022-09-01T02:59:00;101410.25;;;20.71;100.00
9784;BME280;4931;44.874;-1.092;2022-09-01T03:03:52;101406.81;;;20.65;100.00
9784;BME280;4931;44.874;-1.092;2022-09-01T03:08:39;101409.31;;;20.58;100.00
9784;BME280;4931;44.874;-1.092;2022-09-01T03:13:25;101399.47;;;20.52;100.00
9784;BME280;4931;44.874;-1.092;2022-09-01T03:18:13;101398.34;;;20.35;100.00
9784;BME280;4931;44.874;-1.092;2022-09-01T03:23:05;101400.00;;;20.36;100.00
9784;BME280;4931;44.874;-1.092;2022-09-01T03:27:51;101391.53;;;20.24;100.00
9784;BME280;4931;44.874;-1.092;2022-09-01T03:32:37;101395.94;;;20.25;100.00
9784;BME280;4931;44.874;-1.092;2022-09-01T03:37:23;101388.22;;;20.22;100.00
9784;BME280;4931;44.874;-1.092;2022-09-01T03:42:12;101385.31;;;20.10;100.00
9784;BME280;4931;44.874;-1.092;2022-09-01T03:47:07;101380.09;;;19.99;100.00
9784;BME280;4931;44.874;-1.092;2022-09-01T03:51:56;101373.84;;;20.02;100.00
9784;BME280;4931;44.874;-1.092;2022-09-01T03:56:43;101373.03;;;20.02;100.00
9784;BME280;4931;44.874;-1.092;2022-09-01T04:01:32;101371.09;;;19.85;100.00
9784;BME280;4931;44.874;-1.092;2022-09-01T04:06:22;101381.22;;;19.81;100.00
9784;BME280;4931;44.874;-1.092;2022-09-01T04:11:11;101384.84;;;19.81;100.00
9784;BME280;4931;44.874;-1.092;2022-09-01T04:15:59;101374.84;;;19.89;100.00
9784;BME280;4931;44.874;-1.092;2022-09-01T04:20:49;101385.31;;;19.92;100.00
9784;BME280;4931;44.874;-1.092;2022-09-01T04:25:34;101368.28;;;20.02;100.00
9784;BME280;4931;44.874;-1.092;2022-09-01T04:30:21;101366.63;;;20.01;100.00
9784;BME280;4931;44.874;-1.092;2022-09-01T04:35:08;101360.25;;;20.01;100.00
9784;BME280;4931;44.874;-1.092;2022-09-01T04:40:02;101363.53;;;20.03;100.00
9784;BME280;4931;44.874;-1.092;2022-09-01T04:44:47;101356.50;;;20.05;100.00
9784;BME280;4931;44.874;-1.092;2022-09-01T04:49:34;101356.50;;;20.05;100.00
9784;BME280;4931;44.874;-1.092;2022-09-01T04:54:21;101355.50;;;20.01;100.00
9784;BME280;4931;44.874;-1.092;2022-09-01T04:59:09;101358.47;;;19.96;100.00
9784;BME280;4931;44.874;-1.092;2022-09-01T05:03:55;101348.81;;;19.94;100.00
9784;BME280;4931;44.874;-1.092;2022-09-01T05:08:45;101346.19;;;19.88;100.00
9784;BME280;4931;44.874;-1.092;2022-09-01T05:13:30;101340.59;;;19.80;100.00
9784;BME280;4931;44.874;-1.092;2022-09-01T05:18:19;101348.63;;;19.64;100.00
9784;BME280;4931;44.874;-1.092;2022-09-01T05:23:05;101348.78;;;19.58;100.00
9784;BME280;4931;44.874;-1.092;2022-09-01T05:27:53;101348.47;;;19.60;100.00
9784;BME280;4931;44.874;-1.092;2022-09-01T05:32:38;101348.00;;;19.58;100.00
9784;BME280;4931;44.874;-1.092;2022-09-01T05:37:27;101354.19;;;19.55;100.00
9784;BME280;4931;44.874;-1.092;2022-09-01T05:42:12;101352.06;;;19.43;100.00
9784;BME280;4931;44.874;-1.092;2022-09-01T05:46:58;101354.50;;;19.45;100.00
9784;BME280;4931;44.874;-1.092;2022-09-01T05:51:46;101349.44;;;19.47;100.00
9784;BME280;4931;44.874;-1.092;2022-09-01T05:56:36;101360.06;;;19.45;100.00
9784;BME280;4931;44.874;-1.092;2022-09-01T06:01:26;101353.38;;;19.54;100.00
9784;BME280;4931;44.874;-1.092;2022-09-01T06:06:15;101356.63;;;19.56;100.00
9784;BME280;4931;44.874;-1.092;2022-09-01T06:11:03;101359.13;;;19.58;100.00
9784;BME280;4931;44.874;-1.092;2022-09-01T06:15:56;101353.56;;;19.58;100.00
9784;BME280;4931;44.874;-1.092;2022-09-01T06:20:45;101354.06;;;19.95;100.00
9784;BME280;4931;44.874;-1.092;2022-09-01T06:25:30;101357.41;;;20.36;100.00
9784;BME280;4931;44.874;-1.092;2022-09-01T06:30:16;101341.31;;;20.89;100.00
9784;BME280;4931;44.874;-1.092;2022-09-01T06:35:08;101341.25;;;21.49;100.00
9784;BME280;4931;44.874;-1.092;2022-09-01T06:39:54;101333.66;;;21.92;100.00
9784;BME280;4931;44.874;-1.092;2022-09-01T06:44:40;101330.59;;;22.18;100.00
9784;BME280;4931;44.874;-1.092;2022-09-01T06:49:27;101324.75;;;22.57;100.00
9784;BME280;4931;44.874;-1.092;2022-09-01T06:54:20;101318.59;;;22.63;100.00
9784;BME280;4931;44.874;-1.092;2022-09-01T06:59:07;101312.53;;;22.49;100.00
9784;BME280;4931;44.874;-1.092;2022-09-01T07:03:57;101324.88;;;22.60;100.00
9784;BME280;4931;44.874;-1.092;2022-09-01T07:08:43;101316.72;;;22.92;100.00
9784;BME280;4931;44.874;-1.092;2022-09-01T07:13:55;101316.00;;;23.08;100.00
9784;BME280;4931;44.874;-1.092;2022-09-01T07:18:58;101310.28;;;23.57;100.00
9784;BME280;4931;44.874;-1.092;2022-09-01T07:23:44;101320.31;;;24.15;100.00
9784;BME280;4931;44.874;-1.092;2022-09-01T07:28:53;101310.03;;;24.35;100.00
9784;BME280;4931;44.874;-1.092;2022-09-01T07:34:00;101317.53;;;24.47;100.00
9784;BME280;4931;44.874;-1.092;2022-09-01T07:39:10;101310.31;;;24.30;100.00
9784;BME280;4931;44.874;-1.092;2022-09-01T07:44:18;101311.59;;;24.64;100.00
9784;BME280;4931;44.874;-1.092;2022-09-01T07:49:04;101320.47;;;24.66;100.00
9784;BME280;4931;44.874;-1.092;2022-09-01T07:54:09;101312.53;;;24.88;100.00
9784;BME280;4931;44.874;-1.092;2022-09-01T07:58:55;101320.53;;;25.06;100.00
9784;BME280;4931;44.874;-1.092;2022-09-01T08:03:47;101325.91;;;25.30;100.00
9784;BME280;4931;44.874;-1.092;2022-09-01T08:08:35;101312.94;;;25.81;100.00
9784;BME280;4931;44.874;-1.092;2022-09-01T08:13:21;101308.56;;;26.26;100.00
9784;BME280;4931;44.874;-1.092;2022-09-01T08:18:09;101306.22;;;26.28;100.00
9784;BME280;4931;44.874;-1.092;2022-09-01T08:22:58;101310.63;;;26.76;100.00
9784;BME280;4931;44.874;-1.092;2022-09-01T08:27:44;101305.44;;;26.78;100.00
9784;BME280;4931;44.874;-1.092;2022-09-01T08:32:30;101309.97;;;27.13;100.00
9784;BME280;4931;44.874;-1.092;2022-09-01T08:37:16;101310.09;;;27.24;100.00
9784;BME280;4931;44.874;-1.092;2022-09-01T08:42:10;101318.72;;;27.08;100.00
9784;BME280;4931;44.874;-1.092;2022-09-01T08:47:02;101310.06;;;26.93;100.00
9784;BME280;4931;44.874;-1.092;2022-09-01T08:51:59;101306.06;;;26.94;100.00
9784;BME280;4931;44.874;-1.092;2022-09-01T08:56:45;101307.66;;;27.22;100.00
9784;BME280;4931;44.874;-1.092;2022-09-01T09:01:37;101317.00;;;26.99;100.00
9784;BME280;4931;44.874;-1.092;2022-09-01T09:06:31;101321.41;;;27.88;100.00
9784;BME280;4931;44.874;-1.092;2022-09-01T09:16:49;101318.47;;;28.15;100.00
9784;BME280;4931;44.874;-1.092;2022-09-01T09:21:39;101316.09;;;28.17;100.00
9784;BME280;4931;44.874;-1.092;2022-09-01T09:26:25;101309.09;;;27.70;100.00
9784;BME280;4931;44.874;-1.092;2022-09-01T09:31:28;101309.09;;;27.09;100.00
9784;BME280;4931;44.874;-1.092;2022-09-01T09:36:21;101315.59;;;27.13;100.00
9784;BME280;4931;44.874;-1.092;2022-09-01T09:41:14;101308.06;;;27.51;100.00
9784;BME280;4931;44.874;-1.092;2022-09-01T09:46:24;101295.81;;;28.08;100.00
9784;BME280;4931;44.874;-1.092;2022-09-01T09:51:15;101297.56;;;28.20;100.00
9784;BME280;4931;44.874;-1.092;2022-09-01T09:56:07;101299.28;;;28.31;100.00
9784;BME280;4931;44.874;-1.092;2022-09-01T10:01:01;101291.09;;;28.19;100.00
9784;BME280;4931;44.874;-1.092;2022-09-01T10:05:48;101292.63;;;28.09;100.00
9784;BME280;4931;44.874;-1.092;2022-09-01T10:10:41;101286.44;;;28.38;100.00
9784;BME280;4931;44.874;-1.092;2022-09-01T10:15:51;101286.81;;;28.36;100.00
9784;BME280;4931;44.874;-1.092;2022-09-01T10:20:37;101284.63;;;28.15;100.00
9784;BME280;4931;44.874;-1.092;2022-09-01T10:25:25;101282.25;;;28.69;100.00
9784;BME280;4931;44.874;-1.092;2022-09-01T10:30:16;101280.91;;;28.52;100.00
9784;BME280;4931;44.874;-1.092;2022-09-01T10:35:07;101280.91;;;28.52;100.00
9784;BME280;4931;44.874;-1.092;2022-09-01T10:40:12;101274.75;;;28.36;100.00
9784;BME280;4931;44.874;-1.092;2022-09-01T10:45:02;101273.50;;;28.85;100.00
9784;BME280;4931;44.874;-1.092;2022-09-01T10:50:00;101270.56;;;28.71;100.00
9784;BME280;4931;44.874;-1.092;2022-09-01T10:55:00;101268.78;;;28.48;100.00
9784;BME280;4931;44.874;-1.092;2022-09-01T10:59:46;101263.59;;;29.20;100.00
9784;BME280;4931;44.874;-1.092;2022-09-01T11:15:38;101249.84;;;29.08;99.52
9784;BME280;4931;44.874;-1.092;2022-09-01T11:20:28;101255.66;;;29.44;97.59
9784;BME280;4931;44.874;-1.092;2022-09-01T11:25:40;101257.28;;;29.52;97.16
9784;BME280;4931;44.874;-1.092;2022-09-01T11:30:39;101241.94;;;29.50;97.65
9784;BME280;4931;44.874;-1.092;2022-09-01T11:35:33;101238.03;;;30.01;95.15
9784;BME280;4931;44.874;-1.092;2022-09-01T11:40:20;101232.72;;;30.43;94.74
9784;BME280;4931;44.874;-1.092;2022-09-01T11:45:16;101226.69;;;30.34;90.66
9784;BME280;4931;44.874;-1.092;2022-09-01T11:50:04;101226.28;;;30.60;87.99
9784;BME280;4931;44.874;-1.092;2022-09-01T11:54:51;101221.88;;;30.49;86.09
9784;BME280;4931;44.874;-1.092;2022-09-01T11:59:37;101225.09;;;30.11;84.53
9784;BME280;4931;44.874;-1.092;2022-09-01T12:04:31;101220.25;;;29.93;82.86
9784;BME280;4931;44.874;-1.092;2022-09-01T12:09:17;101209.72;;;29.90;83.66
9784;BME280;4931;44.874;-1.092;2022-09-01T12:14:05;101206.09;;;29.90;82.40
9784;BME280;4931;44.874;-1.092;2022-09-01T12:18:54;101204.91;;;29.91;78.38
9784;BME280;4931;44.874;-1.092;2022-09-01T12:23:42;101205.69;;;30.42;74.33
9784;BME280;4931;44.874;-1.092;2022-09-01T12:28:29;101204.44;;;30.43;75.41
9784;BME280;4931;44.874;-1.092;2022-09-01T12:33:16;101209.31;;;30.57;70.80
9784;BME280;4931;44.874;-1.092;2022-09-01T12:38:21;101204.84;;;30.67;68.45
9784;BME280;4931;44.874;-1.092;2022-09-01T12:43:09;101199.19;;;30.63;68.30
9784;BME280;4931;44.874;-1.092;2022-09-01T12:47:54;101198.72;;;30.79;67.37
9784;BME280;4931;44.874;-1.092;2022-09-01T12:52:44;101202.81;;;30.71;71.53
9784;BME280;4931;44.874;-1.092;2022-09-01T12:57:35;101199.88;;;31.07;70.93
9784;BME280;4931;44.874;-1.092;2022-09-01T13:02:33;101194.19;;;31.10;68.37
9784;BME280;4931;44.874;-1.092;2022-09-01T13:07:19;101187.91;;;30.38;72.89
9784;BME280;4931;44.874;-1.092;2022-09-01T13:12:15;101191.94;;;30.48;71.30
9784;BME280;4931;44.874;-1.092;2022-09-01T13:17:01;101192.78;;;30.12;75.58
9784;BME280;4931;44.874;-1.092;2022-09-01T13:21:57;101199.22;;;30.27;73.14
9784;BME280;4931;44.874;-1.092;2022-09-01T13:26:43;101208.03;;;29.46;76.23
9784;BME280;4931;44.874;-1.092;2022-09-01T13:31:58;101203.19;;;29.50;76.29
9784;BME280;4931;44.874;-1.092;2022-09-01T13:37:06;101196.78;;;29.71;76.82
9784;BME280;4931;44.874;-1.092;2022-09-01T13:41:52;101188.28;;;29.71;73.80
9784;BME280;4931;44.874;-1.092;2022-09-01T13:46:37;101176.63;;;30.05;70.16
9784;BME280;4931;44.874;-1.092;2022-09-01T13:51:43;101169.28;;;29.46;68.54
9784;BME280;4931;44.874;-1.092;2022-09-01T13:56:30;101170.09;;;29.61;65.65
9784;BME280;4931;44.874;-1.092;2022-09-01T14:01:16;101161.19;;;29.52;71.48
9784;BME280;4931;44.874;-1.092;2022-09-01T14:06:02;101168.28;;;28.95;73.63
9784;BME280;4931;44.874;-1.092;2022-09-01T14:10:49;101155.56;;;29.48;70.89
9784;BME280;4931;44.874;-1.092;2022-09-01T14:15:38;101159.59;;;29.44;70.72
9784;BME280;4931;44.874;-1.092;2022-09-01T14:20:25;101153.84;;;29.19;68.90
9784;BME280;4931;44.874;-1.092;2022-09-01T14:25:18;101156.50;;;28.72;75.03
9784;BME280;4931;44.874;-1.092;2022-09-01T14:30:05;101160.28;;;28.35;74.87
9784;BME280;4931;44.874;-1.092;2022-09-01T14:34:55;101154.91;;;28.15;81.62
9784;BME280;4931;44.874;-1.092;2022-09-01T14:39:40;101150.97;;;28.27;85.75
9784;BME280;4931;44.874;-1.092;2022-09-01T14:44:26;101148.56;;;27.77;88.24
9784;BME280;4931;44.874;-1.092;2022-09-01T14:49:14;101148.13;;;27.75;84.99
9784;BME280;4931;44.874;-1.092;2022-09-01T14:54:06;101150.50;;;27.69;79.70
9784;BME280;4931;44.874;-1.092;2022-09-01T14:58:52;101160.88;;;27.61;79.19
9784;BME280;4931;44.874;-1.092;2022-09-01T15:03:44;101158.50;;;27.63;87.40
9784;BME280;4931;44.874;-1.092;2022-09-01T15:08:30;101160.75;;;27.47;90.99
9784;BME280;4931;44.874;-1.092;2022-09-01T15:13:18;101148.84;;;27.64;98.10
9784;BME280;4931;44.874;-1.092;2022-09-01T15:18:03;101147.97;;;27.57;99.35
9784;BME280;4931;44.874;-1.092;2022-09-01T15:22:49;101144.44;;;27.29;100.00
9784;BME280;4931;44.874;-1.092;2022-09-01T15:27:34;101151.59;;;27.57;95.07
9784;BME280;4931;44.874;-1.092;2022-09-01T15:32:24;101145.94;;;27.20;96.80
9784;BME280;4931;44.874;-1.092;2022-09-01T15:37:10;101144.28;;;27.15;98.39
9784;BME280;4931;44.874;-1.092;2022-09-01T15:41:55;101152.41;;;27.20;95.95
9784;BME280;4931;44.874;-1.092;2022-09-01T15:46:40;101142.94;;;27.02;97.30
9784;BME280;4931;44.874;-1.092;2022-09-01T15:51:32;101140.19;;;27.09;100.00
9784;BME280;4931;44.874;-1.092;2022-09-01T15:56:17;101125.44;;;26.85;96.98
9784;BME280;4931;44.874;-1.092;2022-09-01T16:01:02;101125.00;;;26.52;93.45
9784;BME280;4931;44.874;-1.092;2022-09-01T16:05:49;101128.31;;;26.62;99.59
9784;BME280;4931;44.874;-1.092;2022-09-01T16:10:39;101126.88;;;26.72;99.35
9784;BME280;4931;44.874;-1.092;2022-09-01T16:15:24;101111.22;;;26.44;97.80
9784;BME280;4931;44.874;-1.092;2022-09-01T16:20:15;101113.72;;;26.49;98.46
9784;BME280;4931;44.874;-1.092;2022-09-01T16:25:08;101108.84;;;26.46;96.56
9784;BME280;4931;44.874;-1.092;2022-09-01T16:30:02;101114.06;;;26.17;97.10
9784;BME280;4931;44.874;-1.092;2022-09-01T16:34:50;101122.09;;;26.18;100.00
9784;BME280;4931;44.874;-1.092;2022-09-01T16:39:41;101122.41;;;26.13;100.00
9784;BME280;4931;44.874;-1.092;2022-09-01T16:44:36;101119.78;;;26.24;100.00
9784;BME280;4931;44.874;-1.092;2022-09-01T16:49:29;101115.59;;;25.64;100.00
9784;BME280;4931;44.874;-1.092;2022-09-01T16:54:21;101130.31;;;25.34;100.00
9784;BME280;4931;44.874;-1.092;2022-09-01T16:59:18;101125.69;;;25.46;100.00
9784;BME280;4931;44.874;-1.092;2022-09-01T17:04:20;101129.69;;;25.45;100.00
9784;BME280;4931;44.874;-1.092;2022-09-01T17:09:19;101113.59;;;25.42;100.00
9784;BME280;4931;44.874;-1.092;2022-09-01T17:14:06;101110.50;;;25.47;100.00
9784;BME280;4931;44.874;-1.092;2022-09-01T17:19:03;101118.59;;;25.52;100.00
9784;BME280;4931;44.874;-1.092;2022-09-01T17:23:54;101112.38;;;25.62;100.00
9784;BME280;4931;44.874;-1.092;2022-09-01T17:28:47;101124.03;;;25.41;100.00
9784;BME280;4931;44.874;-1.092;2022-09-01T17:33:46;101111.59;;;25.23;100.00
9784;BME280;4931;44.874;-1.092;2022-09-01T17:38:37;101118.78;;;25.20;100.00
9784;BME280;4931;44.874;-1.092;2022-09-01T17:43:49;101118.38;;;24.98;100.00
9784;BME280;4931;44.874;-1.092;2022-09-01T17:48:39;101116.81;;;24.81;100.00
9784;BME280;4931;44.874;-1.092;2022-09-01T17:53:32;101113.72;;;24.67;100.00
9784;BME280;4931;44.874;-1.092;2022-09-01T17:58:30;101102.97;;;24.53;100.00
9784;BME280;4931;44.874;-1.092;2022-09-01T18:03:39;101101.09;;;24.57;100.00
9784;BME280;4931;44.874;-1.092;2022-09-01T18:08:31;101114.72;;;24.59;100.00
9784;BME280;4931;44.874;-1.092;2022-09-01T18:13:25;101122.22;;;24.19;100.00
9784;BME280;4931;44.874;-1.092;2022-09-01T18:18:36;101119.88;;;24.21;100.00
9784;BME280;4931;44.874;-1.092;2022-09-01T18:23:22;101122.56;;;24.33;100.00
9784;BME280;4931;44.874;-1.092;2022-09-01T18:28:09;101122.16;;;24.15;100.00
9784;BME280;4931;44.874;-1.092;2022-09-01T18:32:59;101129.97;;;24.06;100.00
9784;BME280;4931;44.874;-1.092;2022-09-01T18:38:04;101130.59;;;23.99;100.00
9784;BME280;4931;44.874;-1.092;2022-09-01T18:42:58;101139.28;;;23.94;100.00
9784;BME280;4931;44.874;-1.092;2022-09-01T18:47:53;101144.66;;;23.87;100.00
9784;BME280;4931;44.874;-1.092;2022-09-01T18:52:52;101150.72;;;23.89;100.00
9784;BME280;4931;44.874;-1.092;2022-09-01T18:57:53;101152.97;;;23.67;100.00
9784;BME280;4931;44.874;-1.092;2022-09-01T19:02:56;101147.25;;;23.64;100.00
9784;BME280;4931;44.874;-1.092;2022-09-01T19:07:48;101146.88;;;23.33;100.00
9784;BME280;4931;44.874;-1.092;2022-09-01T19:12:42;101157.88;;;23.26;100.00
9784;BME280;4931;44.874;-1.092;2022-09-01T19:18:00;101163.13;;;23.28;100.00
9784;BME280;4931;44.874;-1.092;2022-09-01T19:22:53;101165.66;;;23.33;100.00
9784;BME280;4931;44.874;-1.092;2022-09-01T19:27:49;101176.97;;;23.36;100.00
9784;BME280;4931;44.874;-1.092;2022-09-01T19:32:41;101175.59;;;23.30;100.00
9784;BME280;4931;44.874;-1.092;2022-09-01T19:37:26;101175.09;;;23.28;100.00
9784;BME280;4931;44.874;-1.092;2022-09-01T19:42:18;101177.25;;;23.19;100.00
9784;BME280;4931;44.874;-1.092;2022-09-01T19:47:08;101180.19;;;23.10;100.00
9784;BME280;4931;44.874;-1.092;2022-09-01T19:52:02;101184.75;;;23.02;100.00
9784;BME280;4931;44.874;-1.092;2022-09-01T19:56:52;101181.00;;;23.11;100.00
9784;BME280;4931;44.874;-1.092;2022-09-01T20:01:48;101181.38;;;22.97;100.00
9784;BME280;4931;44.874;-1.092;2022-09-01T20:06:47;101175.22;;;22.91;100.00
9784;BME280;4931;44.874;-1.092;2022-09-01T20:11:44;101175.47;;;22.86;100.00
9784;BME280;4931;44.874;-1.092;2022-09-01T20:16:34;101186.66;;;22.86;100.00
9784;BME280;4931;44.874;-1.092;2022-09-01T20:21:23;101182.28;;;22.73;100.00
9784;BME280;4931;44.874;-1.092;2022-09-01T20:26:13;101183.47;;;22.59;100.00
9784;BME280;4931;44.874;-1.092;2022-09-01T20:31:06;101191.38;;;22.57;100.00
9784;BME280;4931;44.874;-1.092;2022-09-01T20:35:57;101192.44;;;22.65;100.00
9784;BME280;4931;44.874;-1.092;2022-09-01T20:40:46;101192.44;;;22.65;100.00
9784;BME280;4931;44.874;-1.092;2022-09-01T20:45:31;101188.59;;;22.69;100.00
9784;BME280;4931;44.874;-1.092;2022-09-01T20:50:24;101188.34;;;22.62;100.00
9784;BME280;4931;44.874;-1.092;2022-09-01T20:55:17;101194.66;;;22.59;100.00
9784;BME280;4931;44.874;-1.092;2022-09-01T21:00:06;101179.84;;;22.59;100.00
9784;BME280;4931;44.874;-1.092;2022-09-01T21:04:58;101186.78;;;22.36;100.00
9784;BME280;4931;44.874;-1.092;2022-09-01T21:10:01;101179.31;;;22.41;100.00
9784;BME280;4931;44.874;-1.092;2022-09-01T21:14:56;101185.13;;;22.35;100.00
9784;BME280;4931;44.874;-1.092;2022-09-01T21:19:50;101183.47;;;22.34;100.00
9784;BME280;4931;44.874;-1.092;2022-09-01T21:24:40;101187.41;;;22.33;100.00
9784;BME280;4931;44.874;-1.092;2022-09-01T21:29:41;101187.41;;;22.33;100.00
9784;BME280;4931;44.874;-1.092;2022-09-01T21:34:29;101186.97;;;22.19;100.00
9784;BME280;4931;44.874;-1.092;2022-09-01T21:39:14;101170.66;;;22.21;100.00
9784;BME280;4931;44.874;-1.092;2022-09-01T21:44:01;101173.34;;;22.17;100.00
9784;BME280;4931;44.874;-1.092;2022-09-01T21:48:49;101176.25;;;22.09;100.00
9784;BME280;4931;44.874;-1.092;2022-09-01T21:53:35;101176.03;;;22.01;100.00
9784;BME280;4931;44.874;-1.092;2022-09-01T21:58:20;101173.19;;;21.89;100.00
9784;BME280;4931;44.874;-1.092;2022-09-01T22:03:06;101172.28;;;21.85;100.00
9784;BME280;4931;44.874;-1.092;2022-09-01T22:07:55;101172.97;;;21.82;100.00
9784;BME280;4931;44.874;-1.092;2022-09-01T22:12:44;101176.22;;;21.71;100.00
9784;BME280;4931;44.874;-1.092;2022-09-01T22:17:30;101174.47;;;21.67;100.00
9784;BME280;4931;44.874;-1.092;2022-09-01T22:22:15;101174.78;;;21.65;100.00
9784;BME280;4931;44.874;-1.092;2022-09-01T22:27:04;101185.97;;;21.65;100.00
9784;BME280;4931;44.874;-1.092;2022-09-01T22:31:50;101171.53;;;21.63;100.00
9784;BME280;4931;44.874;-1.092;2022-09-01T22:36:38;101169.91;;;21.62;100.00
9784;BME280;4931;44.874;-1.092;2022-09-01T22:41:26;101171.94;;;21.53;100.00
9784;BME280;4931;44.874;-1.092;2022-09-01T22:46:17;101177.75;;;21.48;100.00
9784;BME280;4931;44.874;-1.092;2022-09-01T22:51:04;101167.28;;;21.45;100.00
9784;BME280;4931;44.874;-1.092;2022-09-01T22:55:50;101172.16;;;21.35;100.00
9784;BME280;4931;44.874;-1.092;2022-09-01T23:00:36;101177.25;;;21.33;100.00
9784;BME280;4931;44.874;-1.092;2022-09-01T23:05:26;101186.97;;;21.27;100.00
9784;BME280;4931;44.874;-1.092;2022-09-01T23:10:11;101184.66;;;21.29;100.00
9784;BME280;4931;44.874;-1.092;2022-09-01T23:14:57;101191.06;;;21.09;100.00
9784;BME280;4931;44.874;-1.092;2022-09-01T23:19:42;101187.84;;;21.06;100.00
9784;BME280;4931;44.874;-1.092;2022-09-01T23:24:31;101188.16;;;20.84;100.00
9784;BME280;4931;44.874;-1.092;2022-09-01T23:29:16;101187.00;;;20.85;100.00
9784;BME280;4931;44.874;-1.092;2022-09-01T23:34:02;101172.19;;;20.93;100.00
9784;BME280;4931;44.874;-1.092;2022-09-01T23:38:48;101166.75;;;20.97;100.00
9784;BME280;4931;44.874;-1.092;2022-09-01T23:43:37;101169.19;;;20.98;100.00
9784;BME280;4931;44.874;-1.092;2022-09-01T23:48:23;101171.63;;;21.00;100.00
9784;BME280;4931;44.874;-1.092;2022-09-01T23:53:08;101167.56;;;20.97;100.00
9784;BME280;4931;44.874;-1.092;2022-09-01T23:57:54;101167.88;;;20.96;100.00
